Florennes Air Base, Belgique

01:03 CET le 27 novembre 2014 (GMT +0100)
Florennes Air Base | Change Station
CLOSE
Current Station
Aéroport
Location: Florennes,
Altitude: 981 ft
Stations météo à proximité

Alt. 981 ft 50.24 °N, 4.65 °E | Updated 8 minutes ago

Mostly Cloudy
Nuageux
46 ° F
Paraît 44 ° F
N
5
Vent Variable Vent de Est

Aujourd'hui
Haut(e) -- | Bas -- ° F
--% Risque de précip.
Hier
Haut(e) -- | Bas -- ° F
Precip. -- pouce
8:13 AM 4:44 PM
Lune montante, 24% visible
Pression 29.80 pouce
Visibilité 3.1 Miles terrestres
Nuages Nuageux 400 ft
Nuageux 800 ft
Refroidissement éolien 44 ° F
Point de rosée 45 ° F
Humidité 93%
Précipitations 0.00 pouce
Profondeur de la couche neigeuse Non disponible.
UV 0 sur 12
Pollen Non disponible.
Qualité de l'air Non disponible.
Flu Activity Non disponible.
METAR EBFS 262355Z 09004KT 5000 BR BKN004 BKN008 08/07 Q1009 YLO

More Conditions Fewer Conditions

Pression 29.80 pouce
Visibilité 3.1 Miles terrestres
Nuages Nuageux 400 ft
Nuageux 800 ft
Refroidissement éolien 44 ° F
Point de rosée 45 ° F
Humidité 93%
Précipitations 0.00 pouce
Profondeur de la couche neigeuse Non disponible.
UV 0 sur 12
Pollen Non disponible.
Qualité de l'air Non disponible.
Flu Activity Non disponible.
METAR EBFS 262355Z 09004KT 5000 BR BKN004 BKN008 08/07 Q1009 YLO

More Conditions Fewer Conditions

10-Day Weather Forecast

Almanac

Astronomie

Nov. 27, 2014 Lever Coucher
Temps réel
Crépuscule civil
Crépuscule nautique
Crépuscule astronomique
Lune
Durée de lumière visible
Longueur du jour
Tomorrow will be .
, % of the Moon is Illuminated

Extrêmes aujourd'hui

Country Highs Country Lows

Community

WunderPhotos

Upload Photos

1,773,926 Photos téléchargées !

WunderBlogs® & News

Nearby

Qualité de l'air

  Qualité de l'air Indice de la qualité de l'air Polluant
Not available.

Épaisseur de neige

Station Depth Altitude

Activité sismique

Ville Distance Mag. Time & Date
Minimum magnitude displayed is 2.5.

Températures des eaux côtières

Lieu Température

Stations météo à proximité